LFKCLIRQ

Guest
Details From LFKC - St Catherine
To LIRQ - Firenze
Flight Number -
Tags generated
Created
Modified
Stats Distance 131 nm / 242 km
Max Altitude 15,500 ft / 4,724 m
Waypoints 3
Social Downloads 1
Likes 0
Share VATSIM

Download

Looking for another format? Having issues loading an existing format? Contact us
Advertisement - Login to hide

Notes

Basic altitude profile: - Ascent Rate: 2500ft/min - Ascent Speed: 250kts - Cruise Altitude: 230000ft - Cruise Speed: 420kts - Descent Rate: 1500ft/min - Descent Speed: 250kts Options: - Use NATs: yes - Use PACOTS: yes - Use low airways: yes - Use high airways: yes

Route

LFKC GIRAG LIRQ

ID Type Via Altitude Latitude Longitude Leg Dist Tot Dist Heading (true) Name
O LFKC APT - 0 ft / 0 m 42.53076˚ 8.79292˚ - 0 nm - St Catherine
GIRAG FIX - 15,500 ft / 4,724 m 42.99500˚ 9.63000˚ 46 nm 46 nm 53° / 53° -
O LIRQ APT - 0 ft / 0 m 43.80998˚ 11.20512˚ 84 nm 130 nm 54° / 55° Firenze

Altitude Profile

Advertisement - Login to hide

LFKC

Details ICAO LFKC (CLY)
Name St Catherine
Region France
Timezone Europe/Paris (UTC+2.0)
Stats Elevation 208 ft / 63 m (AMSL)
Location 42.530762° 8.792925°
Runways 1
Magnetic Variation 2.389° E

METAR

LFKC 210330Z AUTO VRB02KT CAVOK 15/12 Q1011 BECMG FEW020 SCT040TCU OVC080

Decode

TAF

TAF LFKC 210200Z 2103/2203 VRB05KT 9999 SCT080 BKN120 BECMG 2103/2105 FEW020 SCT040TCU OVC080 TEMPO 2108/2121 SHRA FEW015 BKN030TCU PROB40 TEMPO 2110/2119 36012KT 4000 TSRA SCT020CB BKN030 TX21/2113Z TN14/2104Z

Decode

Departure Runways

ID Width Length Bearing (true) Bearing (mag) Surface Threshold Offset Overrun Length
18 131 ft / 40 m 7,596 ft / 2,315 m 179.60° 177.21° Concrete 0 ft / 0 m 0 ft / 0 m
36 131 ft / 40 m 7,596 ft / 2,315 m 359.60° 357.21° Concrete 656 ft / 200 m 0 ft / 0 m

LIRQ

Details ICAO LIRQ (FLR)
Name Firenze
Region Italy
Timezone Europe/Rome (UTC+2.0)
Stats Elevation 142 ft / 43 m (AMSL)
Location 43.809984° 11.205118°
Runways 1
Magnetic Variation 2.922° E

METAR

LIRQ 210320Z 21004KT 170V230 9999 FEW080 15/13 Q1013

Decode

TAF

TAF LIRQ 202300Z 2100/2124 04006KT 9999 SCT030 TEMPO 2110/2118 4000 TSRA TEMPO 2120/2124 4000 TSRA

Decode

Destination Runways

ID Width Length Bearing (true) Bearing (mag) Surface Threshold Offset Overrun Length
05 98 ft / 30 m 5,420 ft / 1,652 m 48.52° 45.60° Asphalt 492 ft / 150 m 0 ft / 0 m
23 98 ft / 30 m 5,420 ft / 1,652 m 228.53° 225.61° Asphalt 2,287 ft / 697 m 0 ft / 0 m

Approach Navaids

Runway Type Ident Frequency Range Bearing (true) Bearing (mag) Slope Elevation
05 Localiser IFZ 110.30 MHz 18 nm / 33 km 48.10° 45.18° - 131 ft / 40 m (AMSL)
05 Glidescope IFZ 110.30 MHz 10 nm / 19 km 47.00° 44.08° 3.00° 144 ft / 44 m (AMSL)
05 DME IFZ 110.30 MHz 18 nm / 33 km - - - 144 ft / 44 m (AMSL)

Popular Alternatives